sensor_id;sensor_type;location;lat;lon;timestamp;pressure;altitude;pressure_sealevel;temperature;humidity
43161;BME280;40968;52.342;5.528;2022-09-09T00:00:28;100755.44;;;16.97;69.51
43161;BME280;40968;52.342;5.528;2022-09-09T00:03:04;100749.91;;;16.88;69.39
43161;BME280;40968;52.342;5.528;2022-09-09T00:05:40;100766.56;;;16.94;69.84
43161;BME280;40968;52.342;5.528;2022-09-09T00:08:17;100761.47;;;16.90;70.54
43161;BME280;40968;52.342;5.528;2022-09-09T00:10:45;100745.38;;;16.71;69.80
43161;BME280;40968;52.342;5.528;2022-09-09T00:13:19;100764.09;;;16.82;69.72
43161;BME280;40968;52.342;5.528;2022-09-09T00:15:55;100757.28;;;16.78;69.81
43161;BME280;40968;52.342;5.528;2022-09-09T00:18:31;100751.00;;;16.78;69.70
43161;BME280;40968;52.342;5.528;2022-09-09T00:21:05;100754.88;;;16.75;69.37
43161;BME280;40968;52.342;5.528;2022-09-09T00:23:34;100637.31;;;16.07;69.11
43161;BME280;40968;52.342;5.528;2022-09-09T00:26:08;100703.97;;;16.52;69.72
43161;BME280;40968;52.342;5.528;2022-09-09T00:28:39;100716.00;;;16.58;69.54
43161;BME280;40968;52.342;5.528;2022-09-09T00:31:13;100740.69;;;16.73;69.56
43161;BME280;40968;52.342;5.528;2022-09-09T00:33:43;100738.25;;;16.70;69.57
43161;BME280;40968;52.342;5.528;2022-09-09T00:36:13;100736.03;;;16.65;69.95
43161;BME280;40968;52.342;5.528;2022-09-09T00:38:44;100729.75;;;16.65;70.22
43161;BME280;40968;52.342;5.528;2022-09-09T00:41:14;100740.91;;;16.62;70.23
43161;BME280;40968;52.342;5.528;2022-09-09T00:43:52;100724.47;;;16.55;69.96
43161;BME280;40968;52.342;5.528;2022-09-09T00:46:49;100704.53;;;16.38;70.27
43161;BME280;40968;52.342;5.528;2022-09-09T00:49:26;100741.22;;;16.58;70.29
43161;BME280;40968;52.342;5.528;2022-09-09T00:52:03;100707.53;;;16.35;70.42
43161;BME280;40968;52.342;5.528;2022-09-09T00:54:42;100652.47;;;16.00;70.15
43161;BME280;40968;52.342;5.528;2022-09-09T00:57:20;100723.13;;;16.41;70.48
43161;BME280;40968;52.342;5.528;2022-09-09T00:59:52;100730.25;;;16.42;70.46
43161;BME280;40968;52.342;5.528;2022-09-09T01:02:26;100746.25;;;16.53;70.51
43161;BME280;40968;52.342;5.528;2022-09-09T01:04:58;100722.06;;;16.34;70.61
43161;BME280;40968;52.342;5.528;2022-09-09T01:07:28;100746.88;;;16.47;70.87
43161;BME280;40968;52.342;5.528;2022-09-09T01:09:56;100682.88;;;16.02;71.15
43161;BME280;40968;52.342;5.528;2022-09-09T01:12:26;100702.03;;;16.08;71.09
43161;BME280;40968;52.342;5.528;2022-09-09T01:15:02;100605.44;;;15.47;71.12
43161;BME280;40968;52.342;5.528;2022-09-09T01:17:32;100734.97;;;16.22;71.18
43161;BME280;40968;52.342;5.528;2022-09-09T01:20:04;100749.41;;;16.31;71.61
43161;BME280;40968;52.342;5.528;2022-09-09T01:22:35;100705.25;;;15.94;71.78
43161;BME280;40968;52.342;5.528;2022-09-09T01:25:29;100757.69;;;16.29;71.84
43161;BME280;40968;52.342;5.528;2022-09-09T01:27:59;100755.97;;;16.28;71.96
43161;BME280;40968;52.342;5.528;2022-09-09T01:30:27;100745.47;;;16.25;71.92
43161;BME280;40968;52.342;5.528;2022-09-09T01:32:56;100753.13;;;16.30;71.89
43161;BME280;40968;52.342;5.528;2022-09-09T01:35:37;100746.53;;;16.32;71.90
43161;BME280;40968;52.342;5.528;2022-09-09T01:38:06;100744.72;;;16.33;72.25
43161;BME280;40968;52.342;5.528;2022-09-09T01:40:33;100698.81;;;16.05;72.15
43161;BME280;40968;52.342;5.528;2022-09-09T01:43:01;100686.22;;;15.96;72.08
43161;BME280;40968;52.342;5.528;2022-09-09T01:45:28;100728.16;;;16.18;72.10
43161;BME280;40968;52.342;5.528;2022-09-09T01:47:55;100722.81;;;16.08;71.99
43161;BME280;40968;52.342;5.528;2022-09-09T01:50:22;100737.81;;;16.20;72.05
43161;BME280;40968;52.342;5.528;2022-09-09T01:52:52;100740.00;;;16.17;72.20
43161;BME280;40968;52.342;5.528;2022-09-09T01:55:26;100728.84;;;16.02;72.15
43161;BME280;40968;52.342;5.528;2022-09-09T01:58:04;100744.00;;;16.13;72.27
43161;BME280;40968;52.342;5.528;2022-09-09T02:00:43;100725.72;;;15.97;72.33
43161;BME280;40968;52.342;5.528;2022-09-09T02:03:19;100726.03;;;15.94;72.33
43161;BME280;40968;52.342;5.528;2022-09-09T02:05:53;100667.06;;;15.61;72.32
43161;BME280;40968;52.342;5.528;2022-09-09T02:08:26;100743.75;;;16.06;72.33
43161;BME280;40968;52.342;5.528;2022-09-09T02:10:59;100741.75;;;16.08;72.16
43161;BME280;40968;52.342;5.528;2022-09-09T02:13:31;100738.66;;;16.03;72.35
43161;BME280;40968;52.342;5.528;2022-09-09T02:16:03;100679.25;;;15.65;72.29
43161;BME280;40968;52.342;5.528;2022-09-09T02:18:35;100727.91;;;15.93;72.26
43161;BME280;40968;52.342;5.528;2022-09-09T02:21:03;100707.94;;;15.76;72.52
43161;BME280;40968;52.342;5.528;2022-09-09T02:23:31;100666.81;;;15.54;72.48
43161;BME280;40968;52.342;5.528;2022-09-09T02:25:59;100721.97;;;15.89;72.35
43161;BME280;40968;52.342;5.528;2022-09-09T02:28:30;100652.97;;;15.39;72.26
43161;BME280;40968;52.342;5.528;2022-09-09T02:30:58;100724.81;;;15.88;72.42
43161;BME280;40968;52.342;5.528;2022-09-09T02:33:28;100693.47;;;15.67;72.30
43161;BME280;40968;52.342;5.528;2022-09-09T02:35:57;100703.97;;;15.70;72.84
43161;BME280;40968;52.342;5.528;2022-09-09T02:38:29;100681.94;;;15.47;72.51
43161;BME280;40968;52.342;5.528;2022-09-09T02:41:00;100705.75;;;15.62;72.59
43161;BME280;40968;52.342;5.528;2022-09-09T02:43:32;100721.03;;;15.71;72.87
43161;BME280;40968;52.342;5.528;2022-09-09T02:46:04;100721.31;;;15.68;72.94
43161;BME280;40968;52.342;5.528;2022-09-09T02:48:43;100670.59;;;15.34;72.80
43161;BME280;40968;52.342;5.528;2022-09-09T02:51:18;100694.13;;;15.51;72.82
43161;BME280;40968;52.342;5.528;2022-09-09T02:53:57;100716.38;;;15.63;73.14
43161;BME280;40968;52.342;5.528;2022-09-09T02:56:27;100690.78;;;15.39;73.21
43161;BME280;40968;52.342;5.528;2022-09-09T02:58:59;100704.41;;;15.38;73.52
43161;BME280;40968;52.342;5.528;2022-09-09T03:01:26;100700.44;;;15.42;73.30
43161;BME280;40968;52.342;5.528;2022-09-09T03:03:52;100732.63;;;15.53;73.48
43161;BME280;40968;52.342;5.528;2022-09-09T03:06:20;100719.69;;;15.57;73.58
43161;BME280;40968;52.342;5.528;2022-09-09T03:08:47;100725.50;;;15.52;73.55
43161;BME280;40968;52.342;5.528;2022-09-09T03:11:15;100717.41;;;15.52;73.31
43161;BME280;40968;52.342;5.528;2022-09-09T03:13:41;100673.75;;;15.29;73.23
43161;BME280;40968;52.342;5.528;2022-09-09T03:16:09;100694.78;;;15.35;72.86
43161;BME280;40968;52.342;5.528;2022-09-09T03:18:35;100722.28;;;15.49;73.13
43161;BME280;40968;52.342;5.528;2022-09-09T03:21:02;100720.41;;;15.49;73.19
43161;BME280;40968;52.342;5.528;2022-09-09T03:23:29;100679.19;;;15.19;73.18
43161;BME280;40968;52.342;5.528;2022-09-09T03:25:55;100718.03;;;15.46;73.13
43161;BME280;40968;52.342;5.528;2022-09-09T03:28:23;100708.41;;;15.34;73.16
43161;BME280;40968;52.342;5.528;2022-09-09T03:30:58;100716.91;;;15.39;73.22
43161;BME280;40968;52.342;5.528;2022-09-09T03:33:26;100677.22;;;15.12;73.18
43161;BME280;40968;52.342;5.528;2022-09-09T03:35:53;100717.22;;;15.36;73.45
43161;BME280;40968;52.342;5.528;2022-09-09T03:38:22;100718.22;;;15.35;73.67
43161;BME280;40968;52.342;5.528;2022-09-09T03:40:50;100624.50;;;14.80;73.52
43161;BME280;40968;52.342;5.528;2022-09-09T03:43:17;100716.50;;;15.34;73.90
43161;BME280;40968;52.342;5.528;2022-09-09T03:45:45;100726.22;;;15.27;73.90
43161;BME280;40968;52.342;5.528;2022-09-09T03:48:12;100575.78;;;14.34;74.01
43161;BME280;40968;52.342;5.528;2022-09-09T03:50:44;100717.84;;;15.20;74.28
43161;BME280;40968;52.342;5.528;2022-09-09T03:53:10;100696.72;;;15.05;74.36
43161;BME280;40968;52.342;5.528;2022-09-09T03:55:37;100654.03;;;14.81;74.06
43161;BME280;40968;52.342;5.528;2022-09-09T03:58:03;100708.19;;;15.17;74.32
43161;BME280;40968;52.342;5.528;2022-09-09T04:00:30;100652.06;;;14.83;74.28
43161;BME280;40968;52.342;5.528;2022-09-09T04:02:57;100713.59;;;15.17;74.28
43161;BME280;40968;52.342;5.528;2022-09-09T04:05:24;100596.16;;;14.46;74.43
43161;BME280;40968;52.342;5.528;2022-09-09T04:07:51;100705.09;;;15.12;74.49
43161;BME280;40968;52.342;5.528;2022-09-09T04:10:19;100705.09;;;15.12;74.57
43161;BME280;40968;52.342;5.528;2022-09-09T04:12:46;100606.22;;;14.54;74.57
43161;BME280;40968;52.342;5.528;2022-09-09T04:15:12;100700.25;;;15.16;74.54
43161;BME280;40968;52.342;5.528;2022-09-09T04:17:39;100620.56;;;14.64;74.54
43161;BME280;40968;52.342;5.528;2022-09-09T04:20:06;100635.19;;;14.71;74.41
43161;BME280;40968;52.342;5.528;2022-09-09T04:22:36;100577.03;;;14.39;74.43
43161;BME280;40968;52.342;5.528;2022-09-09T04:25:06;100700.25;;;15.06;74.53
43161;BME280;40968;52.342;5.528;2022-09-09T04:27:32;100693.16;;;15.05;74.67
43161;BME280;40968;52.342;5.528;2022-09-09T04:29:59;100658.75;;;14.79;74.62
43161;BME280;40968;52.342;5.528;2022-09-09T04:32:26;100646.97;;;14.70;74.71
43161;BME280;40968;52.342;5.528;2022-09-09T04:34:52;100697.72;;;14.95;74.70
43161;BME280;40968;52.342;5.528;2022-09-09T04:37:19;100685.28;;;14.84;74.91
43161;BME280;40968;52.342;5.528;2022-09-09T04:39:46;100690.25;;;14.88;74.98
43161;BME280;40968;52.342;5.528;2022-09-09T04:42:13;100693.22;;;14.85;74.96
43161;BME280;40968;52.342;5.528;2022-09-09T04:44:41;100693.09;;;14.77;75.28
43161;BME280;40968;52.342;5.528;2022-09-09T04:47:08;100691.97;;;14.80;75.30
43161;BME280;40968;52.342;5.528;2022-09-09T04:49:34;100664.84;;;14.62;75.38
43161;BME280;40968;52.342;5.528;2022-09-09T04:52:02;100686.16;;;14.74;75.44
43161;BME280;40968;52.342;5.528;2022-09-09T04:54:29;100695.53;;;14.70;75.78
43161;BME280;40968;52.342;5.528;2022-09-09T04:56:55;100585.88;;;14.02;75.76
43161;BME280;40968;52.342;5.528;2022-09-09T04:59:23;100663.00;;;14.52;75.84
43161;BME280;40968;52.342;5.528;2022-09-09T05:01:50;100687.28;;;14.62;76.00
43161;BME280;40968;52.342;5.528;2022-09-09T05:04:16;100691.13;;;14.59;76.17
43161;BME280;40968;52.342;5.528;2022-09-09T05:06:44;100683.16;;;14.58;76.18
43161;BME280;40968;52.342;5.528;2022-09-09T05:09:12;100684.44;;;14.54;76.40
43161;BME280;40968;52.342;5.528;2022-09-09T05:11:41;100629.41;;;14.27;76.35
43161;BME280;40968;52.342;5.528;2022-09-09T05:14:09;100628.16;;;14.21;76.17
43161;BME280;40968;52.342;5.528;2022-09-09T05:16:38;100687.28;;;14.52;76.52
43161;BME280;40968;52.342;5.528;2022-09-09T05:19:04;100681.88;;;14.52;76.52
43161;BME280;40968;52.342;5.528;2022-09-09T05:21:33;100682.59;;;14.54;76.46
43161;BME280;40968;52.342;5.528;2022-09-09T05:24:00;100630.13;;;14.19;76.37
43161;BME280;40968;52.342;5.528;2022-09-09T05:26:27;100662.31;;;14.50;76.68
43161;BME280;40968;52.342;5.528;2022-09-09T05:28:54;100686.41;;;14.62;76.62
43161;BME280;40968;52.342;5.528;2022-09-09T05:31:22;100663.72;;;14.45;76.42
43161;BME280;40968;52.342;5.528;2022-09-09T05:33:52;100681.63;;;14.65;76.52
43161;BME280;40968;52.342;5.528;2022-09-09T05:36:20;100690.44;;;14.67;76.34
43161;BME280;40968;52.342;5.528;2022-09-09T05:38:46;100684.16;;;14.67;76.50
43161;BME280;40968;52.342;5.528;2022-09-09T05:41:14;100689.28;;;14.70;76.72
43161;BME280;40968;52.342;5.528;2022-09-09T05:43:42;100656.31;;;14.56;76.55
43161;BME280;40968;52.342;5.528;2022-09-09T05:46:11;100682.03;;;14.70;76.72
43161;BME280;40968;52.342;5.528;2022-09-09T05:48:42;100680.19;;;14.71;76.77
43161;BME280;40968;52.342;5.528;2022-09-09T05:51:11;100678.50;;;14.70;76.69
43161;BME280;40968;52.342;5.528;2022-09-09T05:53:41;100637.34;;;14.48;76.72
43161;BME280;40968;52.342;5.528;2022-09-09T05:56:09;100680.19;;;14.71;76.93
43161;BME280;40968;52.342;5.528;2022-09-09T05:58:37;100593.53;;;14.17;76.90
43161;BME280;40968;52.342;5.528;2022-09-09T06:01:05;100690.97;;;14.71;76.97
43161;BME280;40968;52.342;5.528;2022-09-09T06:03:33;100605.88;;;14.09;77.09
43161;BME280;40968;52.342;5.528;2022-09-09T06:06:01;100692.69;;;14.72;77.22
43161;BME280;40968;52.342;5.528;2022-09-09T06:08:32;100687.13;;;14.73;77.22
43161;BME280;40968;52.342;5.528;2022-09-09T06:11:03;100690.69;;;14.74;77.29
43161;BME280;40968;52.342;5.528;2022-09-09T06:13:30;100685.00;;;14.77;77.52
43161;BME280;40968;52.342;5.528;2022-09-09T06:15:57;100625.13;;;14.44;77.46
43161;BME280;40968;52.342;5.528;2022-09-09T06:18:25;100642.16;;;14.54;77.50
43161;BME280;40968;52.342;5.528;2022-09-09T06:20:59;100654.91;;;14.62;77.52
43161;BME280;40968;52.342;5.528;2022-09-09T06:23:27;100687.81;;;14.85;77.69
43161;BME280;40968;52.342;5.528;2022-09-09T06:26:03;100638.16;;;14.58;77.41
43161;BME280;40968;52.342;5.528;2022-09-09T06:28:31;100647.53;;;14.64;77.59
43161;BME280;40968;52.342;5.528;2022-09-09T06:30:58;100657.47;;;14.73;77.33
43161;BME280;40968;52.342;5.528;2022-09-09T06:33:25;100687.50;;;15.08;77.45
43161;BME280;40968;52.342;5.528;2022-09-09T06:35:53;100689.72;;;15.13;77.20
43161;BME280;40968;52.342;5.528;2022-09-09T06:38:19;100667.88;;;15.06;77.35
43161;BME280;40968;52.342;5.528;2022-09-09T06:40:51;100686.00;;;15.23;77.33
43161;BME280;40968;52.342;5.528;2022-09-09T06:43:21;100695.38;;;15.29;76.97
43161;BME280;40968;52.342;5.528;2022-09-09T06:45:53;100685.97;;;15.33;77.02
43161;BME280;40968;52.342;5.528;2022-09-09T06:48:20;100679.41;;;15.36;76.97
43161;BME280;40968;52.342;5.528;2022-09-09T06:50:47;100676.41;;;15.39;76.84
43161;BME280;40968;52.342;5.528;2022-09-09T06:53:16;100569.31;;;14.74;76.91
43161;BME280;40968;52.342;5.528;2022-09-09T06:55:44;100674.97;;;15.45;77.13
43161;BME280;40968;52.342;5.528;2022-09-09T06:58:11;100640.38;;;15.30;77.02
43161;BME280;40968;52.342;5.528;2022-09-09T07:00:39;100678.31;;;15.56;76.87
43161;BME280;40968;52.342;5.528;2022-09-09T07:03:05;100648.81;;;15.45;76.39
43161;BME280;40968;52.342;5.528;2022-09-09T07:05:32;100674.56;;;15.67;76.83
43161;BME280;40968;52.342;5.528;2022-09-09T07:07:59;100675.94;;;15.71;76.62
43161;BME280;40968;52.342;5.528;2022-09-09T07:10:26;100677.66;;;15.72;76.21
43161;BME280;40968;52.342;5.528;2022-09-09T07:12:52;100678.34;;;15.74;76.22
43161;BME280;40968;52.342;5.528;2022-09-09T07:15:19;100681.34;;;15.81;76.45
43161;BME280;40968;52.342;5.528;2022-09-09T07:17:49;100659.28;;;15.76;76.23
43161;BME280;40968;52.342;5.528;2022-09-09T07:20:16;100638.97;;;15.72;75.88
43161;BME280;40968;52.342;5.528;2022-09-09T07:22:42;100654.56;;;15.88;75.81
43161;BME280;40968;52.342;5.528;2022-09-09T07:25:09;100663.97;;;16.02;75.65
43161;BME280;40968;52.342;5.528;2022-09-09T07:27:36;100682.19;;;16.18;75.73
43161;BME280;40968;52.342;5.528;2022-09-09T07:30:03;100657.63;;;16.11;75.17
43161;BME280;40968;52.342;5.528;2022-09-09T07:32:30;100628.16;;;16.00;75.07
43161;BME280;40968;52.342;5.528;2022-09-09T07:34:58;100672.00;;;16.30;75.15
43161;BME280;40968;52.342;5.528;2022-09-09T07:37:25;100666.28;;;16.33;74.71
43161;BME280;40968;52.342;5.528;2022-09-09T07:39:51;100618.72;;;16.04;74.65
43161;BME280;40968;52.342;5.528;2022-09-09T07:42:18;100675.47;;;16.40;74.42
43161;BME280;40968;52.342;5.528;2022-09-09T07:44:44;100649.06;;;16.34;74.47
43161;BME280;40968;52.342;5.528;2022-09-09T07:47:11;100653.31;;;16.36;74.01
43161;BME280;40968;52.342;5.528;2022-09-09T07:49:38;100681.72;;;16.58;73.37
43161;BME280;40968;52.342;5.528;2022-09-09T07:52:05;100652.16;;;16.39;73.54
43161;BME280;40968;52.342;5.528;2022-09-09T07:54:32;100670.81;;;16.50;73.55
43161;BME280;40968;52.342;5.528;2022-09-09T07:56:58;100677.75;;;16.53;73.23
43161;BME280;40968;52.342;5.528;2022-09-09T07:59:25;100694.91;;;16.62;73.12
43161;BME280;40968;52.342;5.528;2022-09-09T08:01:55;100686.81;;;16.62;73.48
43161;BME280;40968;52.342;5.528;2022-09-09T08:04:23;100635.84;;;16.31;73.22
43161;BME280;40968;52.342;5.528;2022-09-09T08:06:52;100698.00;;;16.67;72.75
43161;BME280;40968;52.342;5.528;2022-09-09T08:09:21;100673.59;;;16.58;72.67
43161;BME280;40968;52.342;5.528;2022-09-09T08:11:50;100640.69;;;16.45;72.71
43161;BME280;40968;52.342;5.528;2022-09-09T08:14:16;100690.53;;;16.87;72.89
43161;BME280;40968;52.342;5.528;2022-09-09T08:16:45;100691.09;;;16.90;72.38
43161;BME280;40968;52.342;5.528;2022-09-09T08:19:12;100693.84;;;16.99;72.53
43161;BME280;40968;52.342;5.528;2022-09-09T08:21:42;100694.38;;;17.02;71.94
43161;BME280;40968;52.342;5.528;2022-09-09T08:24:10;100695.97;;;17.13;71.80
43161;BME280;40968;52.342;5.528;2022-09-09T08:26:39;100669.84;;;17.04;71.42
43161;BME280;40968;52.342;5.528;2022-09-09T08:29:08;100681.75;;;17.11;71.08
43161;BME280;40968;52.342;5.528;2022-09-09T08:31:38;100707.06;;;17.28;70.36
43161;BME280;40968;52.342;5.528;2022-09-09T08:34:06;100699.44;;;17.32;70.79
43161;BME280;40968;52.342;5.528;2022-09-09T08:36:34;100668.72;;;17.15;70.76
43161;BME280;40968;52.342;5.528;2022-09-09T08:39:02;100701.50;;;17.38;70.57
43161;BME280;40968;52.342;5.528;2022-09-09T08:41:59;100710.50;;;17.38;69.85
43161;BME280;40968;52.342;5.528;2022-09-09T08:44:41;100712.84;;;17.33;69.82
43161;BME280;40968;52.342;5.528;2022-09-09T08:47:16;100706.91;;;17.30;70.25
43161;BME280;40968;52.342;5.528;2022-09-09T08:52:49;100675.25;;;17.04;70.24
43161;BME280;40968;52.342;5.528;2022-09-09T08:55:24;100662.84;;;16.93;70.03
43161;BME280;40968;52.342;5.528;2022-09-09T08:57:55;100688.34;;;17.09;69.72
43161;BME280;40968;52.342;5.528;2022-09-09T09:00:22;100627.31;;;16.70;69.57
43161;BME280;40968;52.342;5.528;2022-09-09T09:03:02;100722.44;;;17.28;69.76
43161;BME280;40968;52.342;5.528;2022-09-09T09:05:37;100699.38;;;17.15;69.19
43161;BME280;40968;52.342;5.528;2022-09-09T09:08:14;100727.22;;;17.34;69.54
43161;BME280;40968;52.342;5.528;2022-09-09T09:10:46;100709.56;;;17.21;69.64
43161;BME280;40968;52.342;5.528;2022-09-09T09:13:20;100730.09;;;17.32;69.17
43161;BME280;40968;52.342;5.528;2022-09-09T09:15:52;100674.91;;;16.99;69.50
43161;BME280;40968;52.342;5.528;2022-09-09T09:18:22;100669.84;;;17.04;69.73
43161;BME280;40968;52.342;5.528;2022-09-09T09:20:55;100733.22;;;17.46;69.45
43161;BME280;40968;52.342;5.528;2022-09-09T09:23:33;100710.13;;;17.33;69.04
43161;BME280;40968;52.342;5.528;2022-09-09T09:26:07;100717.59;;;17.39;68.81
43161;BME280;40968;52.342;5.528;2022-09-09T09:28:37;100740.53;;;17.53;68.78
43161;BME280;40968;52.342;5.528;2022-09-09T09:31:06;100695.00;;;17.22;68.58
43161;BME280;40968;52.342;5.528;2022-09-09T09:33:38;100713.03;;;17.40;68.46
43161;BME280;40968;52.342;5.528;2022-09-09T09:36:11;100735.81;;;17.55;68.50
43161;BME280;40968;52.342;5.528;2022-09-09T09:38:52;100734.78;;;17.56;68.02
43161;BME280;40968;52.342;5.528;2022-09-09T09:41:29;100719.13;;;17.42;68.09
43161;BME280;40968;52.342;5.528;2022-09-09T09:43:58;100745.13;;;17.53;68.15
43161;BME280;40968;52.342;5.528;2022-09-09T09:46:26;100684.13;;;17.14;68.61
43161;BME280;40968;52.342;5.528;2022-09-09T09:48:56;100693.63;;;17.18;68.44
43161;BME280;40968;52.342;5.528;2022-09-09T09:51:24;100683.59;;;17.11;68.46
43161;BME280;40968;52.342;5.528;2022-09-09T09:53:51;100614.13;;;16.67;68.75
43161;BME280;40968;52.342;5.528;2022-09-09T09:56:28;100717.38;;;17.33;68.69
43161;BME280;40968;52.342;5.528;2022-09-09T09:58:56;100722.81;;;17.33;68.81
43161;BME280;40968;52.342;5.528;2022-09-09T10:01:25;100719.72;;;17.28;68.98
43161;BME280;40968;52.342;5.528;2022-09-09T10:03:57;100721.78;;;17.26;68.82
43161;BME280;40968;52.342;5.528;2022-09-09T10:06:32;100691.88;;;17.09;68.93
43161;BME280;40968;52.342;5.528;2022-09-09T10:08:59;100702.13;;;17.23;69.15
43161;BME280;40968;52.342;5.528;2022-09-09T10:11:37;100719.09;;;17.34;69.01
43161;BME280;40968;52.342;5.528;2022-09-09T10:14:17;100692.97;;;17.24;69.23
43161;BME280;40968;52.342;5.528;2022-09-09T10:16:58;100735.66;;;17.57;68.66
43161;BME280;40968;52.342;5.528;2022-09-09T10:19:30;100729.34;;;17.56;68.18
43161;BME280;40968;52.342;5.528;2022-09-09T10:22:11;100737.66;;;17.55;68.16
43161;BME280;40968;52.342;5.528;2022-09-09T10:25:21;100716.88;;;17.64;67.45
43161;BME280;40968;52.342;5.528;2022-09-09T10:28:03;100698.88;;;17.54;67.75
43161;BME280;40968;52.342;5.528;2022-09-09T10:30:42;100734.69;;;17.74;67.91
43161;BME280;40968;52.342;5.528;2022-09-09T10:33:21;100659.66;;;17.24;67.49
43161;BME280;40968;52.342;5.528;2022-09-09T10:35:58;100722.28;;;17.64;67.32
43161;BME280;40968;52.342;5.528;2022-09-09T10:38:39;100728.25;;;17.76;66.97
43161;BME280;40968;52.342;5.528;2022-09-09T10:41:18;100728.94;;;17.78;67.05
43161;BME280;40968;52.342;5.528;2022-09-09T10:44:03;100655.47;;;17.38;67.24
43161;BME280;40968;52.342;5.528;2022-09-09T10:46:49;100723.72;;;17.84;67.03
43161;BME280;40968;52.342;5.528;2022-09-09T10:49:28;100702.97;;;17.67;67.98
43161;BME280;40968;52.342;5.528;2022-09-09T10:52:05;100681.25;;;17.50;68.03
43161;BME280;40968;52.342;5.528;2022-09-09T10:54:45;100729.09;;;17.76;68.35
43161;BME280;40968;52.342;5.528;2022-09-09T10:57:24;100674.78;;;17.43;68.92
43161;BME280;40968;52.342;5.528;2022-09-09T10:59:56;100719.59;;;17.72;69.15
43161;BME280;40968;52.342;5.528;2022-09-09T11:02:27;100688.69;;;17.48;69.69
43161;BME280;40968;52.342;5.528;2022-09-09T11:04:57;100719.94;;;17.69;69.64
43161;BME280;40968;52.342;5.528;2022-09-09T11:07:29;100626.22;;;17.07;69.81
43161;BME280;40968;52.342;5.528;2022-09-09T11:10:03;100740.75;;;17.68;70.55
43161;BME280;40968;52.342;5.528;2022-09-09T11:12:35;100706.81;;;17.48;70.52
43161;BME280;40968;52.342;5.528;2022-09-09T11:15:06;100683.72;;;17.35;70.64
43161;BME280;40968;52.342;5.528;2022-09-09T11:17:44;100726.09;;;17.87;71.97
43161;BME280;40968;52.342;5.528;2022-09-09T11:20:14;100664.03;;;17.60;71.69
43161;BME280;40968;52.342;5.528;2022-09-09T11:22:47;100696.09;;;17.89;69.85
43161;BME280;40968;52.342;5.528;2022-09-09T11:25:17;100725.31;;;18.03;68.90
43161;BME280;40968;52.342;5.528;2022-09-09T11:27:58;100729.91;;;18.03;69.72
43161;BME280;40968;52.342;5.528;2022-09-09T11:30:38;100738.03;;;18.03;70.68
43161;BME280;40968;52.342;5.528;2022-09-09T11:33:33;100731.25;;;17.99;69.74
43161;BME280;40968;52.342;5.528;2022-09-09T11:36:22;100671.50;;;17.74;69.28
43161;BME280;40968;52.342;5.528;2022-09-09T11:38:58;100677.50;;;17.94;69.00
43161;BME280;40968;52.342;5.528;2022-09-09T11:41:34;100722.00;;;18.43;68.30
43161;BME280;40968;52.342;5.528;2022-09-09T11:44:10;100690.28;;;18.35;68.15
43161;BME280;40968;52.342;5.528;2022-09-09T11:46:39;100699.09;;;18.53;67.39
43161;BME280;40968;52.342;5.528;2022-09-09T11:49:26;100564.81;;;17.75;66.97
43161;BME280;40968;52.342;5.528;2022-09-09T11:51:53;100673.81;;;18.61;67.55
43161;BME280;40968;52.342;5.528;2022-09-09T11:54:30;100658.56;;;18.52;66.17
43161;BME280;40968;52.342;5.528;2022-09-09T11:56:58;100655.66;;;18.53;66.40
43161;BME280;40968;52.342;5.528;2022-09-09T11:59:26;100708.56;;;18.82;66.05
43161;BME280;40968;52.342;5.528;2022-09-09T12:01:55;100624.00;;;18.29;65.60
43161;BME280;40968;52.342;5.528;2022-09-09T12:04:33;100683.66;;;18.62;65.82
43161;BME280;40968;52.342;5.528;2022-09-09T12:07:04;100565.53;;;17.94;66.44
43161;BME280;40968;52.342;5.528;2022-09-09T12:09:39;100711.31;;;18.74;66.18
43161;BME280;40968;52.342;5.528;2022-09-09T12:12:26;100678.06;;;18.55;66.14
43161;BME280;40968;52.342;5.528;2022-09-09T12:15:18;100701.13;;;18.68;65.72
43161;BME280;40968;52.342;5.528;2022-09-09T12:17:47;100703.34;;;18.72;66.01
43161;BME280;40968;52.342;5.528;2022-09-09T12:20:34;100708.25;;;18.85;65.77
43161;BME280;40968;52.342;5.528;2022-09-09T12:23:22;100661.44;;;18.67;65.05
43161;BME280;40968;52.342;5.528;2022-09-09T12:25:58;100691.81;;;18.79;65.17
43161;BME280;40968;52.342;5.528;2022-09-09T12:28:45;100688.06;;;18.63;66.70
43161;BME280;40968;52.342;5.528;2022-09-09T12:31:20;100651.47;;;18.34;67.77
43161;BME280;40968;52.342;5.528;2022-09-09T12:33:48;100697.06;;;18.55;68.30
43161;BME280;40968;52.342;5.528;2022-09-09T12:36:18;100650.09;;;18.14;68.96
43161;BME280;40968;52.342;5.528;2022-09-09T12:38:46;100668.91;;;18.40;69.85
43161;BME280;40968;52.342;5.528;2022-09-09T12:41:20;100654.34;;;18.41;69.68
43161;BME280;40968;52.342;5.528;2022-09-09T12:43:47;100706.19;;;18.87;70.40
43161;BME280;40968;52.342;5.528;2022-09-09T12:46:22;100592.28;;;18.21;68.84
43161;BME280;40968;52.342;5.528;2022-09-09T12:48:55;100695.00;;;18.74;68.55
43161;BME280;40968;52.342;5.528;2022-09-09T12:51:25;100697.03;;;18.72;68.97
43161;BME280;40968;52.342;5.528;2022-09-09T12:53:52;100701.13;;;18.60;70.03
43161;BME280;40968;52.342;5.528;2022-09-09T12:56:21;100610.53;;;17.86;70.31
43161;BME280;40968;52.342;5.528;2022-09-09T12:58:50;100616.31;;;17.75;70.65
43161;BME280;40968;52.342;5.528;2022-09-09T13:01:21;100690.94;;;18.20;71.98
43161;BME280;40968;52.342;5.528;2022-09-09T13:03:48;100701.44;;;18.15;72.54
43161;BME280;40968;52.342;5.528;2022-09-09T13:06:20;100669.00;;;17.89;72.57
43161;BME280;40968;52.342;5.528;2022-09-09T13:08:52;100629.84;;;17.83;72.71
43161;BME280;40968;52.342;5.528;2022-09-09T13:11:21;100684.00;;;18.34;72.68
43161;BME280;40968;52.342;5.528;2022-09-09T13:13:51;100653.13;;;18.27;71.24